createdAt,value
2018-04-23T00:01:54.499Z,3.50
2018-04-23T00:04:20.458Z,3.47
2018-04-23T00:06:46.427Z,3.20
2018-04-23T00:09:12.362Z,3.10
2018-04-23T00:11:38.333Z,3.60
2018-04-23T00:14:04.266Z,4.00
2018-04-23T00:16:30.225Z,3.10
2018-04-23T00:18:56.185Z,3.30
2018-04-23T00:21:22.898Z,3.50
2018-04-23T00:23:49.590Z,3.55
2018-04-23T00:26:15.575Z,4.10
2018-04-23T00:28:42.270Z,3.50
2018-04-23T00:31:08.238Z,3.93
2018-04-23T00:33:34.958Z,4.30
2018-04-23T00:36:00.906Z,3.50
2018-04-23T00:38:27.621Z,4.37
2018-04-23T00:40:54.334Z,4.05
2018-04-23T00:43:20.302Z,4.03
2018-04-23T00:45:46.991Z,4.60
2018-04-23T00:48:12.975Z,4.07
2018-04-23T00:50:38.930Z,3.80
2018-04-23T00:53:04.894Z,3.87
2018-04-23T00:55:30.858Z,5.13
2018-04-23T00:57:56.818Z,3.20
2018-04-23T01:00:22.801Z,4.53
2018-04-23T01:02:48.751Z,3.90
2018-04-23T01:05:14.719Z,3.83
2018-04-23T01:07:41.398Z,3.53
2018-04-23T01:10:07.411Z,3.75
2018-04-23T01:12:33.366Z,3.70
2018-04-23T01:14:59.333Z,3.70
2018-04-23T01:17:25.302Z,3.60
2018-04-23T01:19:51.255Z,3.60
2018-04-23T01:22:17.190Z,3.23
2018-04-23T01:24:43.893Z,4.83
2018-04-23T01:27:09.866Z,3.75
2018-04-23T01:29:35.811Z,4.33
2018-04-23T01:32:01.778Z,3.70
2018-04-23T01:34:27.747Z,4.37
2018-04-23T01:36:53.720Z,3.53
2018-04-23T01:39:19.675Z,3.77
2018-04-23T01:41:45.634Z,4.20
2018-04-23T01:44:11.602Z,4.20
2018-04-23T01:46:38.313Z,3.50
2018-04-23T01:49:04.288Z,3.22
2018-04-23T01:51:30.264Z,3.87
2018-04-23T01:53:56.207Z,4.03
2018-04-23T01:56:22.923Z,3.03
2018-04-23T01:58:48.899Z,3.50
2018-04-23T02:01:14.876Z,4.43
2018-04-23T02:03:40.825Z,3.30
2018-04-23T02:06:06.812Z,3.83
2018-04-23T02:08:33.534Z,3.85
2018-04-23T02:10:59.510Z,3.80
2018-04-23T02:13:26.204Z,4.00
2018-04-23T02:15:52.191Z,4.03
2018-04-23T02:18:18.162Z,4.50
2018-04-23T02:20:44.116Z,3.63
2018-04-23T02:23:10.814Z,3.87
2018-04-23T02:25:36.771Z,3.95
2018-04-23T02:28:03.474Z,4.03
2018-04-23T02:30:29.415Z,3.55
2018-04-23T02:32:55.386Z,4.13
2018-04-23T02:35:21.332Z,5.33
2018-04-23T02:37:47.309Z,3.97
2018-04-23T02:40:13.239Z,3.77
2018-04-23T02:42:39.304Z,4.40
2018-04-23T02:45:05.261Z,4.60
2018-04-23T02:47:32.002Z,3.70
2018-04-23T02:49:57.955Z,4.10
2018-04-23T02:52:23.899Z,4.00
2018-04-23T02:54:49.874Z,3.80
2018-04-23T02:57:16.572Z,3.47
2018-04-23T02:59:42.557Z,3.90
2018-04-23T03:02:08.502Z,3.80
2018-04-23T03:04:34.481Z,3.80
2018-04-23T03:07:00.469Z,4.17
2018-04-23T03:09:26.466Z,4.60
2018-04-23T03:11:52.415Z,4.00
2018-04-23T03:14:18.371Z,3.87
2018-04-23T03:16:44.377Z,3.97
2018-04-23T03:19:11.075Z,4.10
2018-04-23T03:21:37.046Z,3.85
2018-04-23T03:24:03.770Z,4.07
2018-04-23T03:26:29.739Z,4.20
2018-04-23T03:28:55.686Z,4.27
2018-04-23T03:31:21.649Z,4.00
2018-04-23T03:33:47.599Z,4.20
2018-04-23T03:36:13.562Z,3.87
2018-04-23T03:38:39.510Z,4.40
2018-04-23T03:41:05.479Z,3.80
2018-04-23T03:43:31.442Z,4.20
2018-04-23T03:45:57.943Z,4.47
2018-04-23T03:48:24.766Z,3.80
2018-04-23T03:50:52.262Z,3.75
2018-04-23T03:53:18.228Z,4.90
2018-04-23T03:55:44.938Z,4.63
2018-04-23T03:58:11.634Z,4.10
2018-04-23T04:00:37.616Z,4.05
2018-04-23T04:03:04.311Z,3.67
2018-04-23T04:05:30.307Z,3.90
2018-04-23T04:07:56.271Z,4.20
2018-04-23T04:10:22.230Z,4.10
2018-04-23T04:12:48.183Z,4.13
2018-04-23T04:15:14.134Z,3.77
2018-04-23T04:17:40.078Z,3.50
2018-04-23T04:20:06.021Z,3.40
2018-04-23T04:22:32.722Z,4.20
2018-04-23T04:24:58.675Z,4.57
2018-04-23T04:27:25.395Z,3.57
2018-04-23T04:29:51.342Z,4.50
2018-04-23T04:32:18.077Z,4.10
2018-04-23T04:34:44.765Z,4.00
2018-04-23T04:37:10.751Z,4.10
2018-04-23T04:39:36.725Z,3.83
2018-04-23T04:42:02.692Z,3.77
2018-04-23T04:44:28.650Z,4.20
2018-04-23T04:46:54.648Z,4.10
2018-04-23T04:49:20.615Z,4.03
2018-04-23T04:51:46.553Z,4.27
2018-04-23T04:54:12.517Z,4.53
2018-04-23T04:56:38.462Z,5.47
2018-04-23T04:59:04.440Z,4.13
2018-04-23T05:01:31.147Z,3.23
2018-04-23T05:03:57.112Z,4.60
2018-04-23T05:06:23.098Z,4.20
2018-04-23T05:08:49.066Z,4.03
2018-04-23T05:11:15.028Z,4.27
2018-04-23T05:13:41.002Z,4.27
2018-04-23T05:16:06.968Z,4.50
2018-04-23T05:18:32.950Z,4.10
2018-04-23T05:20:58.907Z,5.20
2018-04-23T05:23:24.855Z,4.93
2018-04-23T05:25:50.806Z,4.30
2018-04-23T05:28:16.746Z,4.10
2018-04-23T05:30:42.729Z,4.87
2018-04-23T05:33:08.673Z,4.80
2018-04-23T05:35:34.629Z,4.10
2018-04-23T05:38:00.574Z,3.90
2018-04-23T05:40:26.535Z,4.50
2018-04-23T05:42:52.490Z,3.70
2018-04-23T05:45:18.482Z,4.10
2018-04-23T05:47:44.428Z,4.50
2018-04-23T05:50:10.415Z,4.07
2018-04-23T05:52:36.361Z,4.17
2018-04-23T05:55:02.339Z,3.97
2018-04-23T05:57:28.305Z,4.73
2018-04-23T05:59:54.238Z,4.13
2018-04-23T06:02:20.206Z,4.00
2018-04-23T06:04:46.134Z,4.57
2018-04-23T06:07:12.101Z,3.83
2018-04-23T06:09:38.103Z,4.30
2018-04-23T06:12:04.106Z,4.90
2018-04-23T06:14:30.799Z,4.32
2018-04-23T06:16:56.768Z,4.10
2018-04-23T06:19:23.465Z,4.13
2018-04-23T06:21:49.453Z,4.47
2018-04-23T06:24:15.401Z,4.20
2018-04-23T06:26:41.375Z,4.10
2018-04-23T06:29:07.319Z,5.40
2018-04-23T06:31:33.289Z,4.60
2018-04-23T06:33:59.248Z,4.30
2018-04-23T06:36:25.995Z,4.30
2018-04-23T06:38:51.974Z,4.65
2018-04-23T06:41:17.921Z,4.80
2018-04-23T06:43:43.886Z,3.80
2018-04-23T06:46:09.914Z,4.87
2018-04-23T06:48:35.819Z,4.07
2018-04-23T06:51:01.770Z,4.10
2018-04-23T06:53:27.734Z,4.23
2018-04-23T06:55:53.691Z,4.60
2018-04-23T06:58:19.658Z,4.00
2018-04-23T07:00:45.597Z,4.50
2018-04-23T07:03:11.561Z,4.50
2018-04-23T07:05:37.549Z,4.27
2018-04-23T07:08:03.543Z,4.50
2018-04-23T07:10:29.509Z,5.43
2018-04-23T07:12:55.471Z,4.23
2018-04-23T07:15:21.439Z,5.23
2018-04-23T07:17:48.127Z,4.53
2018-04-23T07:20:14.108Z,4.72
2018-04-23T07:22:40.794Z,4.60
2018-04-23T07:25:06.818Z,4.55
2018-04-23T07:27:32.771Z,5.10
2018-04-23T07:29:58.734Z,5.10
2018-04-23T07:32:24.709Z,4.63
2018-04-23T07:34:50.726Z,5.10
2018-04-23T07:37:16.626Z,5.73
2018-04-23T07:39:42.603Z,6.10
2018-04-23T07:42:08.571Z,4.93
2018-04-23T07:44:34.536Z,5.43
2018-04-23T07:47:00.503Z,5.43
2018-04-23T07:49:26.451Z,5.60
2018-04-23T07:51:52.442Z,5.10
2018-04-23T07:54:18.396Z,5.90
2018-04-23T07:56:44.362Z,5.83
2018-04-23T07:59:11.109Z,5.73
2018-04-23T08:01:37.086Z,6.50
2018-04-23T08:04:03.033Z,5.90
2018-04-23T08:06:29.770Z,6.17
2018-04-23T08:08:55.742Z,5.85
2018-04-23T08:11:21.734Z,6.20
2018-04-23T08:13:47.678Z,5.10
2018-04-23T08:16:13.670Z,4.07
2018-04-23T08:18:40.388Z,3.80
2018-04-23T08:21:06.359Z,4.40
2018-04-23T08:23:32.358Z,4.30
2018-04-23T08:25:58.333Z,3.67
2018-04-23T08:28:24.303Z,4.93
2018-04-23T08:30:51.389Z,3.97
2018-04-23T08:33:17.690Z,3.97
2018-04-23T08:35:44.559Z,4.70
2018-04-23T08:38:10.530Z,4.30
2018-04-23T08:40:36.521Z,4.40
2018-04-23T08:43:02.863Z,4.40
2018-04-23T08:45:28.888Z,4.37
2018-04-23T08:47:56.519Z,4.75
2018-04-23T08:50:24.383Z,4.53
2018-04-23T08:52:51.327Z,4.60
2018-04-23T08:55:18.242Z,4.43
2018-04-23T08:57:45.274Z,4.60
2018-04-23T09:00:11.766Z,5.45
2018-04-23T09:02:38.008Z,5.20
2018-04-23T09:05:05.437Z,5.75
2018-04-23T09:07:32.516Z,5.00
2018-04-23T09:09:58.575Z,4.78
2018-04-23T09:12:25.694Z,4.40
2018-04-23T09:14:51.835Z,4.22
2018-04-23T09:17:17.971Z,4.47
2018-04-23T09:19:47.210Z,5.03
2018-04-23T09:22:14.954Z,4.55
2018-04-23T09:24:41.031Z,4.28
2018-04-23T09:27:08.150Z,5.07
2018-04-23T09:29:36.822Z,4.07
2018-04-23T09:32:04.434Z,3.97
2018-04-23T09:34:30.475Z,4.62
2018-04-23T09:36:57.196Z,3.90
2018-04-23T09:39:23.175Z,3.85
2018-04-23T09:41:49.146Z,4.20
2018-04-23T09:44:15.124Z,4.73
2018-04-23T09:46:41.096Z,3.47
2018-04-23T09:49:08.521Z,3.23
2018-04-23T09:51:34.581Z,3.00
2018-04-23T09:54:01.486Z,2.97
2018-04-23T09:56:27.486Z,2.95
2018-04-23T09:58:53.502Z,2.60
2018-04-23T10:01:19.508Z,2.70
2018-04-23T10:03:45.464Z,2.50
2018-04-23T10:06:11.545Z,3.10
2018-04-23T10:08:37.504Z,2.80
2018-04-23T10:11:03.503Z,2.70
2018-04-23T10:13:29.467Z,2.65
2018-04-23T10:15:55.442Z,3.33
2018-04-23T10:18:23.220Z,2.80
2018-04-23T10:20:49.226Z,2.90
2018-04-23T10:23:15.946Z,3.13
2018-04-23T10:25:41.915Z,3.80
2018-04-23T10:28:07.901Z,3.50
2018-04-23T10:30:34.615Z,3.60
2018-04-23T10:33:00.622Z,3.40
2018-04-23T10:35:26.617Z,4.30
2018-04-23T10:37:52.674Z,4.17
2018-04-23T10:40:18.978Z,4.00
2018-04-23T10:42:44.991Z,4.00
2018-04-23T10:45:11.900Z,4.40
2018-04-23T10:47:39.147Z,5.18
2018-04-23T10:50:05.178Z,4.35
2018-04-23T10:52:31.951Z,4.37
2018-04-23T10:54:57.922Z,4.57
2018-04-23T10:57:24.002Z,3.85
2018-04-23T10:59:49.975Z,4.03
2018-04-23T11:02:15.947Z,5.20
2018-04-23T11:04:41.954Z,4.23
2018-04-23T11:07:07.941Z,4.15
2018-04-23T11:09:33.940Z,4.00
2018-04-23T11:11:59.946Z,5.50
2018-04-23T11:14:25.927Z,4.10
2018-04-23T11:16:52.647Z,4.23
2018-04-23T11:19:18.643Z,3.60
2018-04-23T11:21:44.606Z,4.43
2018-04-23T11:24:10.595Z,4.70
2018-04-23T11:26:36.563Z,4.10
2018-04-23T11:29:02.572Z,4.83
2018-04-23T11:31:28.527Z,4.07
2018-04-23T11:33:55.243Z,4.20
2018-04-23T11:36:21.940Z,4.15
2018-04-23T11:38:47.923Z,4.40
2018-04-23T11:41:13.903Z,4.70
2018-04-23T11:43:39.852Z,4.13
2018-04-23T11:46:06.579Z,4.80
2018-04-23T11:48:32.531Z,4.45
2018-04-23T11:50:59.277Z,4.27
2018-04-23T11:53:25.239Z,4.35
2018-04-23T11:55:52.240Z,5.17
2018-04-23T11:58:18.251Z,4.62
2018-04-23T12:00:44.975Z,4.57
2018-04-23T12:03:10.946Z,4.05
2018-04-23T12:05:36.923Z,4.73
2018-04-23T12:08:02.896Z,4.10
2018-04-23T12:10:28.834Z,5.07
2018-04-23T12:12:54.813Z,5.00
2018-04-23T12:15:21.604Z,4.67
2018-04-23T12:17:47.590Z,5.00
2018-04-23T12:20:13.547Z,5.77
2018-04-23T12:22:39.518Z,5.27
2018-04-23T12:25:07.392Z,5.07
2018-04-23T12:27:34.978Z,4.90
2018-04-23T12:30:02.104Z,5.10
2018-04-23T12:32:28.079Z,4.95
2018-04-23T12:34:55.517Z,5.50
2018-04-23T12:37:23.142Z,5.37
2018-04-23T12:39:52.250Z,5.68
2018-04-23T12:42:19.800Z,5.35
2018-04-23T12:44:47.132Z,6.15
2018-04-23T12:47:13.218Z,6.65
2018-04-23T12:49:40.646Z,6.50
2018-04-23T12:52:06.630Z,5.80
2018-04-23T12:54:36.215Z,5.70
2018-04-23T12:57:03.025Z,6.15
2018-04-23T12:59:29.973Z,7.40
2018-04-23T13:01:56.261Z,6.30
2018-04-23T13:04:22.287Z,6.05
2018-04-23T13:06:48.607Z,5.93
2018-04-23T13:09:15.373Z,5.65
2018-04-23T13:11:41.375Z,6.18
2018-04-23T13:14:08.129Z,5.90
2018-04-23T13:16:34.114Z,5.82
2018-04-23T13:19:00.100Z,6.40
2018-04-23T13:21:26.115Z,6.20
2018-04-23T13:23:52.885Z,6.97
2018-04-23T13:26:18.852Z,6.62
2018-04-23T13:28:45.574Z,5.20
2018-04-23T13:31:11.559Z,5.18
2018-04-23T13:33:37.580Z,6.13
2018-04-23T13:36:03.552Z,5.60
2018-04-23T13:38:29.538Z,5.60
2018-04-23T13:40:55.492Z,5.13
2018-04-23T13:43:21.471Z,5.07
2018-04-23T13:45:47.437Z,4.73
2018-04-23T13:48:13.425Z,6.07
2018-04-23T13:50:39.383Z,5.30
2018-04-23T13:53:05.341Z,4.80
2018-04-23T13:55:31.337Z,4.83
2018-04-23T13:57:58.472Z,4.20
2018-04-23T14:00:24.426Z,4.67
2018-04-23T14:02:50.439Z,5.00
2018-04-23T14:05:17.170Z,4.20
2018-04-23T14:07:43.862Z,4.63
2018-04-23T14:10:09.837Z,3.90
2018-04-23T14:12:35.786Z,4.30
2018-04-23T14:15:01.797Z,3.80
2018-04-23T14:17:27.740Z,4.33
2018-04-23T14:19:54.476Z,4.07
2018-04-23T14:22:20.435Z,4.20
2018-04-23T14:24:46.418Z,4.57
2018-04-23T14:27:12.374Z,3.90
2018-04-23T14:29:38.358Z,4.30
2018-04-23T14:32:04.301Z,4.77
2018-04-23T14:34:30.295Z,3.97
2018-04-23T14:36:56.243Z,4.10
2018-04-23T14:39:22.219Z,4.20
2018-04-23T14:41:48.926Z,4.70
2018-04-23T14:44:14.897Z,4.47
2018-04-23T14:46:40.862Z,3.93
2018-04-23T14:49:06.869Z,4.40
2018-04-23T14:51:32.808Z,5.13
2018-04-23T14:53:58.766Z,4.50
2018-04-23T14:56:24.752Z,4.20
2018-04-23T14:58:50.703Z,4.50
2018-04-23T15:01:16.909Z,4.87
2018-04-23T15:03:42.891Z,5.30
2018-04-23T15:06:08.899Z,4.30
2018-04-23T15:08:34.892Z,4.47
2018-04-23T15:11:00.863Z,5.07
2018-04-23T15:13:27.455Z,4.70
2018-04-23T15:15:54.163Z,4.30
2018-04-23T15:18:20.151Z,5.83
2018-04-23T15:20:46.110Z,4.90
2018-04-23T15:23:12.120Z,4.77
2018-04-23T15:25:38.141Z,5.10
2018-04-23T15:28:04.142Z,5.23
2018-04-23T15:30:30.114Z,4.73
2018-04-23T15:32:56.086Z,5.10
2018-04-23T15:35:22.083Z,4.40
2018-04-23T15:37:48.828Z,5.00
2018-04-23T15:40:14.814Z,5.05
2018-04-23T15:42:40.790Z,5.10
2018-04-23T15:45:06.758Z,4.70
2018-04-23T15:47:32.793Z,4.93
2018-04-23T15:49:58.774Z,4.60
2018-04-23T15:52:24.766Z,5.17
2018-04-23T15:54:51.003Z,5.13
2018-04-23T15:57:20.305Z,4.18
2018-04-23T15:59:47.062Z,4.40
2018-04-23T16:02:14.063Z,4.50
2018-04-23T16:04:41.825Z,5.30
2018-04-23T16:07:08.330Z,3.90
2018-04-23T16:09:36.001Z,3.90
2018-04-23T16:12:02.031Z,4.62
2018-04-23T16:14:28.025Z,4.62
2018-04-23T16:16:54.008Z,4.30
2018-04-23T16:19:20.736Z,4.10
2018-04-23T16:21:46.710Z,4.60
2018-04-23T16:24:12.693Z,6.27
2018-04-23T16:26:39.442Z,4.30
2018-04-23T16:29:05.878Z,4.70
2018-04-23T16:31:32.119Z,3.95
2018-04-23T16:34:00.033Z,4.37
2018-04-23T16:36:27.655Z,4.62
2018-04-23T16:38:54.263Z,4.80
2018-04-23T16:41:20.483Z,4.40
2018-04-23T16:43:47.207Z,4.62
2018-04-23T16:46:13.194Z,5.53
2018-04-23T16:48:39.155Z,4.10
2018-04-23T16:51:05.157Z,4.77
2018-04-23T16:53:31.163Z,4.40
2018-04-23T16:55:57.121Z,4.93
2018-04-23T16:58:23.120Z,4.00
2018-04-23T17:00:49.106Z,4.47
2018-04-23T17:03:15.097Z,3.97
2018-04-23T17:05:42.639Z,4.20
2018-04-23T17:08:09.069Z,4.95
2018-04-23T17:10:35.099Z,4.35
2018-04-23T17:13:01.075Z,4.50
2018-04-23T17:15:27.060Z,4.83
2018-04-23T17:17:53.033Z,4.63
2018-04-23T17:20:19.026Z,4.83
2018-04-23T17:22:44.990Z,4.60
2018-04-23T17:25:11.536Z,5.37
2018-04-23T17:27:37.506Z,4.65
2018-04-23T17:30:05.590Z,4.13
2018-04-23T17:32:31.814Z,4.47
2018-04-23T17:34:57.830Z,5.45
2018-04-23T17:37:23.875Z,5.10
2018-04-23T17:39:50.689Z,4.57
2018-04-23T17:42:16.719Z,4.35
2018-04-23T17:44:42.707Z,4.72
2018-04-23T17:47:08.738Z,5.03
2018-04-23T17:49:34.728Z,4.78
2018-04-23T17:52:00.747Z,5.25
2018-04-23T17:54:26.734Z,4.67
2018-04-23T17:56:53.230Z,5.00
2018-04-23T17:59:19.223Z,5.00
2018-04-23T18:01:45.218Z,5.20
2018-04-23T18:04:11.334Z,4.95
2018-04-23T18:06:37.343Z,6.00
2018-04-23T18:09:04.760Z,5.60
2018-04-23T18:11:30.790Z,4.65
2018-04-23T18:13:56.786Z,5.05
2018-04-23T18:16:22.795Z,5.10
2018-04-23T18:18:49.083Z,4.65
2018-04-23T18:21:15.756Z,4.20
2018-04-23T18:23:41.807Z,4.85
2018-04-23T18:26:07.806Z,5.25
2018-04-23T18:28:34.095Z,5.27
2018-04-23T18:31:02.421Z,5.35
2018-04-23T18:33:29.231Z,4.90
2018-04-23T18:35:57.598Z,4.82
2018-04-23T18:38:23.898Z,5.32
2018-04-23T18:40:50.123Z,5.20
2018-04-23T18:43:16.161Z,5.45
2018-04-23T18:45:42.211Z,5.37
2018-04-23T18:48:08.217Z,5.22
2018-04-23T18:50:35.774Z,4.80
2018-04-23T18:53:03.070Z,5.82
2018-04-23T18:55:29.648Z,5.87
2018-04-23T18:57:56.735Z,5.82
2018-04-23T19:00:25.081Z,6.15
2018-04-23T19:02:51.417Z,5.68
2018-04-23T19:05:19.372Z,5.45
2018-04-23T19:07:45.725Z,5.57
2018-04-23T19:10:12.905Z,6.03
2018-04-23T19:12:39.623Z,5.97
2018-04-23T19:15:05.830Z,5.43
2018-04-23T19:17:32.819Z,5.45
2018-04-23T19:20:00.410Z,6.35
2018-04-23T19:22:29.115Z,5.62
2018-04-23T19:24:55.833Z,5.87
2018-04-23T19:27:23.788Z,6.50
2018-04-23T19:29:50.674Z,5.75
2018-04-23T19:32:17.112Z,6.03
2018-04-23T19:34:43.135Z,6.12
2018-04-23T19:37:10.203Z,5.70
2018-04-23T19:39:37.134Z,5.43
2018-04-23T19:42:04.175Z,5.90
2018-04-23T19:44:32.225Z,5.70
2018-04-23T19:46:58.307Z,6.90
2018-04-23T19:49:25.050Z,4.70
2018-04-23T19:51:51.801Z,6.57
2018-04-23T19:54:20.416Z,5.37
2018-04-23T19:56:47.367Z,6.28
2018-04-23T19:59:14.984Z,5.65
2018-04-23T20:01:41.003Z,6.18
2018-04-23T20:04:09.762Z,6.12
2018-04-23T20:06:35.732Z,5.43
2018-04-23T20:09:02.747Z,5.40
2018-04-23T20:11:29.668Z,6.03
2018-04-23T20:13:57.001Z,5.55
2018-04-23T20:16:23.041Z,6.30
2018-04-23T20:18:50.889Z,5.10
2018-04-23T20:21:17.800Z,5.65
2018-04-23T20:23:44.450Z,5.72
2018-04-23T20:26:12.026Z,5.12
2018-04-23T20:28:38.234Z,6.07
2018-04-23T20:31:04.612Z,6.00
2018-04-23T20:33:31.360Z,5.80
2018-04-23T20:36:00.406Z,6.78
2018-04-23T20:38:27.685Z,6.32
2018-04-23T20:40:54.878Z,6.03
2018-04-23T20:43:23.941Z,5.82
2018-04-23T20:45:50.766Z,6.10
2018-04-23T20:48:17.009Z,6.62
2018-04-23T20:50:43.273Z,6.60
2018-04-23T20:53:10.030Z,5.90
2018-04-23T20:55:36.257Z,6.75
2018-04-23T20:58:04.307Z,6.87
2018-04-23T21:00:31.179Z,6.78
2018-04-23T21:02:59.073Z,5.85
2018-04-23T21:05:27.581Z,5.43
2018-04-23T21:07:55.290Z,6.97
2018-04-23T21:10:22.389Z,6.10
2018-04-23T21:12:49.365Z,5.95
2018-04-23T21:15:15.431Z,5.32
2018-04-23T21:17:42.446Z,5.20
2018-04-23T21:20:10.888Z,6.12
2018-04-23T21:22:38.483Z,6.20
2018-04-23T21:25:05.494Z,5.95
2018-04-23T21:27:32.463Z,5.20
2018-04-23T21:30:00.170Z,5.22
2018-04-23T21:32:26.476Z,5.30
2018-04-23T21:34:53.974Z,5.35
2018-04-23T21:37:20.899Z,5.72
2018-04-23T21:39:49.491Z,5.62
2018-04-23T21:42:15.565Z,5.50
2018-04-23T21:44:42.525Z,5.83
2018-04-23T21:47:11.045Z,6.35
2018-04-23T21:49:37.120Z,5.32
2018-04-23T21:52:04.626Z,6.90
2018-04-23T21:54:31.940Z,5.32
2018-04-23T21:56:59.482Z,6.07
2018-04-23T21:59:26.854Z,7.85
2018-04-23T22:01:54.068Z,6.43
2018-04-23T22:04:22.489Z,5.80
2018-04-23T22:06:49.267Z,6.12
2018-04-23T22:09:15.238Z,5.35
2018-04-23T22:11:42.320Z,6.23
2018-04-23T22:14:08.460Z,6.60
2018-04-23T22:16:34.921Z,5.80
2018-04-23T22:19:01.895Z,7.50
2018-04-23T22:21:28.927Z,6.10
2018-04-23T22:23:56.241Z,5.97
2018-04-23T22:26:23.134Z,6.80
2018-04-23T22:28:50.031Z,7.20
2018-04-23T22:31:17.025Z,7.00
2018-04-23T22:33:43.086Z,6.95
2018-04-23T22:36:10.936Z,6.05
2018-04-23T22:38:37.703Z,6.68
2018-04-23T22:41:03.783Z,6.05
2018-04-23T22:43:30.378Z,6.37
2018-04-23T22:45:56.350Z,7.03
2018-04-23T22:48:23.269Z,7.30
2018-04-23T22:50:49.222Z,6.10
2018-04-23T22:53:15.944Z,6.37
2018-04-23T22:55:41.926Z,6.32
2018-04-23T22:58:07.879Z,6.43
2018-04-23T23:00:33.872Z,6.27
2018-04-23T23:02:59.853Z,6.35
2018-04-23T23:05:26.867Z,6.20
2018-04-23T23:07:53.293Z,6.10
2018-04-23T23:10:19.334Z,7.20
2018-04-23T23:12:45.319Z,6.62
2018-04-23T23:15:12.314Z,7.07
2018-04-23T23:17:38.312Z,6.05
2018-04-23T23:20:04.290Z,6.47
2018-04-23T23:22:30.247Z,7.30
2018-04-23T23:24:56.199Z,6.73
2018-04-23T23:27:22.262Z,6.10
2018-04-23T23:29:48.170Z,6.85
2018-04-23T23:32:14.160Z,5.40
2018-04-23T23:34:41.092Z,6.47
2018-04-23T23:37:07.087Z,6.00
2018-04-23T23:39:33.062Z,6.47
2018-04-23T23:42:00.468Z,6.00
2018-04-23T23:44:27.427Z,6.30
2018-04-23T23:46:54.411Z,6.95
2018-04-23T23:49:21.150Z,6.87
2018-04-23T23:51:47.880Z,8.00
2018-04-23T23:54:13.899Z,6.40
2018-04-23T23:56:40.646Z,6.60
2018-04-23T23:59:06.648Z,6.25
